sensor_id;sensor_type;location;lat;lon;timestamp;P1;durP1;ratioP1;P2;durP2;ratioP2
8478;SDS011;4276;49.354;6.804;2022-10-26T00:01:09;4.72;;;3.20;;
8478;SDS011;4276;49.354;6.804;2022-10-26T00:03:41;5.53;;;3.20;;
8478;SDS011;4276;49.354;6.804;2022-10-26T00:06:10;4.28;;;3.25;;
8478;SDS011;4276;49.354;6.804;2022-10-26T00:08:36;5.30;;;3.28;;
8478;SDS011;4276;49.354;6.804;2022-10-26T00:11:03;3.88;;;3.10;;
8478;SDS011;4276;49.354;6.804;2022-10-26T00:13:30;4.63;;;3.45;;
8478;SDS011;4276;49.354;6.804;2022-10-26T00:15:57;4.82;;;3.03;;
8478;SDS011;4276;49.354;6.804;2022-10-26T00:18:24;5.10;;;3.00;;
8478;SDS011;4276;49.354;6.804;2022-10-26T00:20:50;6.65;;;3.17;;
8478;SDS011;4276;49.354;6.804;2022-10-26T00:23:17;7.25;;;3.17;;
8478;SDS011;4276;49.354;6.804;2022-10-26T00:25:43;3.00;;;2.67;;
8478;SDS011;4276;49.354;6.804;2022-10-26T00:28:10;3.40;;;3.10;;
8478;SDS011;4276;49.354;6.804;2022-10-26T00:30:37;5.55;;;3.28;;
8478;SDS011;4276;49.354;6.804;2022-10-26T00:33:04;6.05;;;2.83;;
8478;SDS011;4276;49.354;6.804;2022-10-26T00:35:31;6.07;;;2.67;;
8478;SDS011;4276;49.354;6.804;2022-10-26T00:38:11;4.05;;;3.15;;
8478;SDS011;4276;49.354;6.804;2022-10-26T00:40:37;4.00;;;3.10;;
8478;SDS011;4276;49.354;6.804;2022-10-26T00:43:05;4.05;;;2.88;;
8478;SDS011;4276;49.354;6.804;2022-10-26T00:45:38;5.60;;;3.13;;
8478;SDS011;4276;49.354;6.804;2022-10-26T00:48:05;6.07;;;2.97;;
8478;SDS011;4276;49.354;6.804;2022-10-26T00:50:38;5.32;;;3.22;;
8478;SDS011;4276;49.354;6.804;2022-10-26T00:53:07;7.88;;;3.17;;
8478;SDS011;4276;49.354;6.804;2022-10-26T00:55:36;4.65;;;2.70;;
8478;SDS011;4276;49.354;6.804;2022-10-26T00:58:05;6.78;;;3.30;;
8478;SDS011;4276;49.354;6.804;2022-10-26T01:00:32;4.45;;;2.92;;
8478;SDS011;4276;49.354;6.804;2022-10-26T01:03:00;5.43;;;2.90;;
8478;SDS011;4276;49.354;6.804;2022-10-26T01:05:30;5.47;;;3.00;;
8478;SDS011;4276;49.354;6.804;2022-10-26T01:07:57;7.30;;;2.90;;
8478;SDS011;4276;49.354;6.804;2022-10-26T01:10:26;4.93;;;2.97;;
8478;SDS011;4276;49.354;6.804;2022-10-26T01:12:54;5.50;;;2.95;;
8478;SDS011;4276;49.354;6.804;2022-10-26T01:15:23;7.20;;;3.10;;
8478;SDS011;4276;49.354;6.804;2022-10-26T01:18:01;6.65;;;3.05;;
8478;SDS011;4276;49.354;6.804;2022-10-26T01:20:44;7.85;;;3.10;;
8478;SDS011;4276;49.354;6.804;2022-10-26T01:28:30;6.07;;;2.80;;
8478;SDS011;4276;49.354;6.804;2022-10-26T01:31:32;4.38;;;2.90;;
8478;SDS011;4276;49.354;6.804;2022-10-26T01:34:13;4.57;;;2.90;;
8478;SDS011;4276;49.354;6.804;2022-10-26T01:36:43;4.88;;;3.03;;
8478;SDS011;4276;49.354;6.804;2022-10-26T01:39:15;6.22;;;3.30;;
8478;SDS011;4276;49.354;6.804;2022-10-26T01:41:47;6.80;;;3.00;;
8478;SDS011;4276;49.354;6.804;2022-10-26T01:44:17;3.75;;;3.42;;
8478;SDS011;4276;49.354;6.804;2022-10-26T01:46:47;6.55;;;4.00;;
8478;SDS011;4276;49.354;6.804;2022-10-26T01:49:16;7.95;;;3.65;;
8478;SDS011;4276;49.354;6.804;2022-10-26T01:51:48;5.90;;;3.17;;
8478;SDS011;4276;49.354;6.804;2022-10-26T01:54:15;5.38;;;3.28;;
8478;SDS011;4276;49.354;6.804;2022-10-26T01:56:43;3.92;;;3.10;;
8478;SDS011;4276;49.354;6.804;2022-10-26T01:59:25;4.90;;;2.83;;
8478;SDS011;4276;49.354;6.804;2022-10-26T02:20:50;4.00;;;3.35;;
8478;SDS011;4276;49.354;6.804;2022-10-26T02:23:19;5.60;;;3.25;;
8478;SDS011;4276;49.354;6.804;2022-10-26T02:25:49;4.68;;;2.80;;
8478;SDS011;4276;49.354;6.804;2022-10-26T02:28:20;6.88;;;3.30;;
8478;SDS011;4276;49.354;6.804;2022-10-26T02:30:49;5.22;;;2.78;;
8478;SDS011;4276;49.354;6.804;2022-10-26T02:33:17;8.60;;;2.83;;
8478;SDS011;4276;49.354;6.804;2022-10-26T02:35:45;3.60;;;2.78;;
8478;SDS011;4276;49.354;6.804;2022-10-26T02:38:15;6.63;;;2.67;;
8478;SDS011;4276;49.354;6.804;2022-10-26T02:40:43;3.63;;;2.70;;
8478;SDS011;4276;49.354;6.804;2022-10-26T02:43:13;4.63;;;2.90;;
8478;SDS011;4276;49.354;6.804;2022-10-26T02:45:46;5.43;;;2.70;;
8478;SDS011;4276;49.354;6.804;2022-10-26T02:48:15;4.07;;;2.45;;
8478;SDS011;4276;49.354;6.804;2022-10-26T02:53:34;8.32;;;3.58;;
8478;SDS011;4276;49.354;6.804;2022-10-26T02:56:19;7.45;;;3.60;;
8478;SDS011;4276;49.354;6.804;2022-10-26T02:58:49;6.97;;;3.92;;
8478;SDS011;4276;49.354;6.804;2022-10-26T03:01:18;6.70;;;3.45;;
8478;SDS011;4276;49.354;6.804;2022-10-26T03:03:45;6.25;;;3.28;;
8478;SDS011;4276;49.354;6.804;2022-10-26T03:06:19;4.25;;;3.45;;
8478;SDS011;4276;49.354;6.804;2022-10-26T03:08:47;3.90;;;3.05;;
8478;SDS011;4276;49.354;6.804;2022-10-26T03:11:13;3.42;;;3.13;;
8478;SDS011;4276;49.354;6.804;2022-10-26T03:13:40;3.67;;;2.58;;
8478;SDS011;4276;49.354;6.804;2022-10-26T03:16:06;4.93;;;3.22;;
8478;SDS011;4276;49.354;6.804;2022-10-26T03:18:33;4.03;;;2.60;;
8478;SDS011;4276;49.354;6.804;2022-10-26T03:21:00;4.97;;;2.60;;
8478;SDS011;4276;49.354;6.804;2022-10-26T03:23:26;4.22;;;2.80;;
8478;SDS011;4276;49.354;6.804;2022-10-26T03:25:56;7.20;;;2.90;;
8478;SDS011;4276;49.354;6.804;2022-10-26T03:28:23;4.82;;;2.83;;
8478;SDS011;4276;49.354;6.804;2022-10-26T03:30:50;4.65;;;3.10;;
8478;SDS011;4276;49.354;6.804;2022-10-26T03:33:16;5.10;;;3.00;;
8478;SDS011;4276;49.354;6.804;2022-10-26T03:35:43;3.63;;;2.50;;
8478;SDS011;4276;49.354;6.804;2022-10-26T03:38:09;4.93;;;2.70;;
8478;SDS011;4276;49.354;6.804;2022-10-26T03:40:41;5.30;;;2.50;;
8478;SDS011;4276;49.354;6.804;2022-10-26T03:43:07;4.20;;;2.92;;
8478;SDS011;4276;49.354;6.804;2022-10-26T03:45:34;4.55;;;2.85;;
8478;SDS011;4276;49.354;6.804;2022-10-26T03:48:03;3.85;;;2.53;;
8478;SDS011;4276;49.354;6.804;2022-10-26T03:50:30;3.70;;;2.60;;
8478;SDS011;4276;49.354;6.804;2022-10-26T03:52:56;4.15;;;2.38;;
8478;SDS011;4276;49.354;6.804;2022-10-26T03:55:23;3.45;;;2.50;;
8478;SDS011;4276;49.354;6.804;2022-10-26T03:57:50;5.25;;;2.70;;
8478;SDS011;4276;49.354;6.804;2022-10-26T04:00:16;3.90;;;2.78;;
8478;SDS011;4276;49.354;6.804;2022-10-26T04:02:44;4.57;;;3.25;;
8478;SDS011;4276;49.354;6.804;2022-10-26T04:05:13;5.32;;;3.03;;
8478;SDS011;4276;49.354;6.804;2022-10-26T04:07:41;2.95;;;2.72;;
8478;SDS011;4276;49.354;6.804;2022-10-26T04:10:08;7.68;;;3.15;;
8478;SDS011;4276;49.354;6.804;2022-10-26T04:12:36;5.20;;;3.38;;
8478;SDS011;4276;49.354;6.804;2022-10-26T04:15:03;5.05;;;3.35;;
8478;SDS011;4276;49.354;6.804;2022-10-26T04:17:32;5.63;;;3.38;;
8478;SDS011;4276;49.354;6.804;2022-10-26T04:19:59;3.78;;;2.90;;
8478;SDS011;4276;49.354;6.804;2022-10-26T04:22:25;4.43;;;2.90;;
8478;SDS011;4276;49.354;6.804;2022-10-26T04:24:52;4.82;;;2.90;;
8478;SDS011;4276;49.354;6.804;2022-10-26T04:27:18;6.95;;;3.03;;
8478;SDS011;4276;49.354;6.804;2022-10-26T04:29:45;3.75;;;3.20;;
8478;SDS011;4276;49.354;6.804;2022-10-26T04:32:12;4.57;;;3.80;;
8478;SDS011;4276;49.354;6.804;2022-10-26T04:34:38;6.22;;;5.32;;
8478;SDS011;4276;49.354;6.804;2022-10-26T04:37:05;5.32;;;4.82;;
8478;SDS011;4276;49.354;6.804;2022-10-26T04:39:31;8.38;;;5.10;;
8478;SDS011;4276;49.354;6.804;2022-10-26T04:41:58;6.15;;;5.60;;
8478;SDS011;4276;49.354;6.804;2022-10-26T04:44:24;6.18;;;5.68;;
8478;SDS011;4276;49.354;6.804;2022-10-26T04:46:51;7.72;;;4.85;;
8478;SDS011;4276;49.354;6.804;2022-10-26T04:49:17;7.72;;;3.72;;
8478;SDS011;4276;49.354;6.804;2022-10-26T04:51:44;4.53;;;3.55;;
8478;SDS011;4276;49.354;6.804;2022-10-26T04:54:10;4.90;;;3.00;;
8478;SDS011;4276;49.354;6.804;2022-10-26T04:56:37;4.93;;;2.90;;
8478;SDS011;4276;49.354;6.804;2022-10-26T04:59:03;5.15;;;2.80;;
8478;SDS011;4276;49.354;6.804;2022-10-26T05:01:30;5.95;;;2.67;;
8478;SDS011;4276;49.354;6.804;2022-10-26T05:03:57;6.65;;;2.58;;
8478;SDS011;4276;49.354;6.804;2022-10-26T05:06:24;5.43;;;4.72;;
8478;SDS011;4276;49.354;6.804;2022-10-26T05:08:50;5.95;;;3.97;;
8478;SDS011;4276;49.354;6.804;2022-10-26T05:11:17;4.65;;;3.70;;
8478;SDS011;4276;49.354;6.804;2022-10-26T05:13:43;4.75;;;3.50;;
8478;SDS011;4276;49.354;6.804;2022-10-26T05:16:13;5.80;;;3.75;;
8478;SDS011;4276;49.354;6.804;2022-10-26T05:18:39;6.18;;;3.72;;
8478;SDS011;4276;49.354;6.804;2022-10-26T05:21:06;4.55;;;3.10;;
8478;SDS011;4276;49.354;6.804;2022-10-26T05:23:33;8.82;;;3.15;;
8478;SDS011;4276;49.354;6.804;2022-10-26T05:25:59;4.03;;;2.92;;
8478;SDS011;4276;49.354;6.804;2022-10-26T05:28:26;3.58;;;2.90;;
8478;SDS011;4276;49.354;6.804;2022-10-26T05:30:52;5.93;;;3.45;;
8478;SDS011;4276;49.354;6.804;2022-10-26T05:33:19;6.57;;;3.00;;
8478;SDS011;4276;49.354;6.804;2022-10-26T05:35:45;5.63;;;2.88;;
8478;SDS011;4276;49.354;6.804;2022-10-26T05:38:16;5.68;;;3.17;;
8478;SDS011;4276;49.354;6.804;2022-10-26T05:40:46;4.05;;;2.90;;
8478;SDS011;4276;49.354;6.804;2022-10-26T05:43:16;4.22;;;3.17;;
8478;SDS011;4276;49.354;6.804;2022-10-26T05:45:43;5.07;;;2.92;;
8478;SDS011;4276;49.354;6.804;2022-10-26T05:48:10;7.15;;;3.72;;
8478;SDS011;4276;49.354;6.804;2022-10-26T05:50:36;7.00;;;4.28;;
8478;SDS011;4276;49.354;6.804;2022-10-26T05:53:03;6.00;;;3.90;;
8478;SDS011;4276;49.354;6.804;2022-10-26T05:55:30;4.45;;;4.05;;
8478;SDS011;4276;49.354;6.804;2022-10-26T05:57:57;5.80;;;4.10;;
8478;SDS011;4276;49.354;6.804;2022-10-26T06:00:25;8.15;;;4.47;;
8478;SDS011;4276;49.354;6.804;2022-10-26T06:05:46;5.43;;;4.88;;
8478;SDS011;4276;49.354;6.804;2022-10-26T06:08:21;12.95;;;10.10;;
8478;SDS011;4276;49.354;6.804;2022-10-26T06:10:50;13.13;;;11.73;;
8478;SDS011;4276;49.354;6.804;2022-10-26T06:13:17;50.38;;;43.20;;
8478;SDS011;4276;49.354;6.804;2022-10-26T06:15:47;30.33;;;25.60;;
8478;SDS011;4276;49.354;6.804;2022-10-26T06:18:38;17.88;;;11.80;;
8478;SDS011;4276;49.354;6.804;2022-10-26T06:23:55;20.35;;;13.13;;
8478;SDS011;4276;49.354;6.804;2022-10-26T06:26:48;11.43;;;10.27;;
8478;SDS011;4276;49.354;6.804;2022-10-26T06:29:28;8.57;;;7.50;;
8478;SDS011;4276;49.354;6.804;2022-10-26T06:32:20;15.75;;;12.68;;
8478;SDS011;4276;49.354;6.804;2022-10-26T06:34:48;13.63;;;10.07;;
8478;SDS011;4276;49.354;6.804;2022-10-26T06:37:16;8.65;;;6.55;;
8478;SDS011;4276;49.354;6.804;2022-10-26T06:39:46;9.18;;;5.90;;
8478;SDS011;4276;49.354;6.804;2022-10-26T06:42:19;8.98;;;5.53;;
8478;SDS011;4276;49.354;6.804;2022-10-26T06:44:46;5.18;;;4.60;;
8478;SDS011;4276;49.354;6.804;2022-10-26T06:47:17;5.60;;;4.70;;
8478;SDS011;4276;49.354;6.804;2022-10-26T06:52:57;4.68;;;3.78;;
8478;SDS011;4276;49.354;6.804;2022-10-26T06:55:36;7.13;;;4.05;;
8478;SDS011;4276;49.354;6.804;2022-10-26T06:58:07;5.85;;;4.88;;
8478;SDS011;4276;49.354;6.804;2022-10-26T07:00:36;5.40;;;4.90;;
8478;SDS011;4276;49.354;6.804;2022-10-26T07:03:04;6.97;;;5.70;;
8478;SDS011;4276;49.354;6.804;2022-10-26T07:05:31;5.80;;;5.03;;
8478;SDS011;4276;49.354;6.804;2022-10-26T07:07:58;6.22;;;5.30;;
8478;SDS011;4276;49.354;6.804;2022-10-26T07:10:25;7.20;;;5.00;;
8478;SDS011;4276;49.354;6.804;2022-10-26T07:12:51;5.32;;;4.35;;
8478;SDS011;4276;49.354;6.804;2022-10-26T07:15:18;7.00;;;4.93;;
8478;SDS011;4276;49.354;6.804;2022-10-26T07:17:44;4.38;;;3.97;;
8478;SDS011;4276;49.354;6.804;2022-10-26T07:20:14;6.57;;;4.35;;
8478;SDS011;4276;49.354;6.804;2022-10-26T07:22:42;4.50;;;4.00;;
8478;SDS011;4276;49.354;6.804;2022-10-26T07:25:09;6.47;;;3.88;;
8478;SDS011;4276;49.354;6.804;2022-10-26T07:27:37;5.93;;;3.90;;
8478;SDS011;4276;49.354;6.804;2022-10-26T07:30:04;5.30;;;3.70;;
8478;SDS011;4276;49.354;6.804;2022-10-26T07:32:31;5.65;;;4.25;;
8478;SDS011;4276;49.354;6.804;2022-10-26T07:34:58;5.28;;;3.88;;
8478;SDS011;4276;49.354;6.804;2022-10-26T07:37:24;4.78;;;3.90;;
8478;SDS011;4276;49.354;6.804;2022-10-26T07:39:51;7.18;;;3.90;;
8478;SDS011;4276;49.354;6.804;2022-10-26T07:42:17;4.72;;;3.92;;
8478;SDS011;4276;49.354;6.804;2022-10-26T07:44:44;5.28;;;4.30;;
8478;SDS011;4276;49.354;6.804;2022-10-26T07:47:10;6.10;;;5.50;;
8478;SDS011;4276;49.354;6.804;2022-10-26T07:49:37;4.65;;;4.20;;
8478;SDS011;4276;49.354;6.804;2022-10-26T07:52:04;5.70;;;4.80;;
8478;SDS011;4276;49.354;6.804;2022-10-26T07:54:30;6.68;;;5.25;;
8478;SDS011;4276;49.354;6.804;2022-10-26T07:56:57;5.90;;;5.30;;
8478;SDS011;4276;49.354;6.804;2022-10-26T07:59:24;7.25;;;5.57;;
8478;SDS011;4276;49.354;6.804;2022-10-26T08:01:51;6.78;;;5.28;;
8478;SDS011;4276;49.354;6.804;2022-10-26T08:04:18;5.93;;;5.07;;
8478;SDS011;4276;49.354;6.804;2022-10-26T08:06:44;5.40;;;4.75;;
8478;SDS011;4276;49.354;6.804;2022-10-26T08:09:12;10.23;;;5.13;;
8478;SDS011;4276;49.354;6.804;2022-10-26T08:11:38;6.57;;;4.57;;
8478;SDS011;4276;49.354;6.804;2022-10-26T08:14:05;7.70;;;4.20;;
8478;SDS011;4276;49.354;6.804;2022-10-26T08:16:31;4.30;;;3.90;;
8478;SDS011;4276;49.354;6.804;2022-10-26T08:19:00;5.13;;;4.60;;
8478;SDS011;4276;49.354;6.804;2022-10-26T08:21:26;5.63;;;4.50;;
8478;SDS011;4276;49.354;6.804;2022-10-26T08:24:05;5.90;;;4.30;;
8478;SDS011;4276;49.354;6.804;2022-10-26T08:26:32;7.70;;;4.82;;
8478;SDS011;4276;49.354;6.804;2022-10-26T08:28:58;7.18;;;6.00;;
8478;SDS011;4276;49.354;6.804;2022-10-26T08:31:25;7.72;;;5.40;;
8478;SDS011;4276;49.354;6.804;2022-10-26T08:33:51;6.35;;;5.55;;
8478;SDS011;4276;49.354;6.804;2022-10-26T08:36:24;9.55;;;5.15;;
8478;SDS011;4276;49.354;6.804;2022-10-26T08:38:52;5.50;;;4.97;;
8478;SDS011;4276;49.354;6.804;2022-10-26T08:41:20;9.43;;;5.57;;
8478;SDS011;4276;49.354;6.804;2022-10-26T08:43:54;6.32;;;5.40;;
8478;SDS011;4276;49.354;6.804;2022-10-26T08:46:23;5.03;;;4.53;;
8478;SDS011;4276;49.354;6.804;2022-10-26T08:48:52;6.50;;;4.32;;
8478;SDS011;4276;49.354;6.804;2022-10-26T08:51:22;5.18;;;3.90;;
8478;SDS011;4276;49.354;6.804;2022-10-26T08:54:02;5.25;;;3.88;;
8478;SDS011;4276;49.354;6.804;2022-10-26T08:57:01;4.55;;;3.67;;
8478;SDS011;4276;49.354;6.804;2022-10-26T09:02:36;4.10;;;3.03;;
8478;SDS011;4276;49.354;6.804;2022-10-26T09:05:04;4.50;;;2.95;;
8478;SDS011;4276;49.354;6.804;2022-10-26T09:18:28;6.32;;;5.30;;
8478;SDS011;4276;49.354;6.804;2022-10-26T09:21:42;3.13;;;2.88;;
8478;SDS011;4276;49.354;6.804;2022-10-26T09:24:21;6.90;;;5.88;;
8478;SDS011;4276;49.354;6.804;2022-10-26T09:26:58;6.60;;;6.00;;
8478;SDS011;4276;49.354;6.804;2022-10-26T09:29:39;6.38;;;4.68;;
8478;SDS011;4276;49.354;6.804;2022-10-26T09:32:16;5.35;;;4.10;;
8478;SDS011;4276;49.354;6.804;2022-10-26T09:37:25;4.40;;;3.85;;
8478;SDS011;4276;49.354;6.804;2022-10-26T09:39:59;5.90;;;2.65;;
8478;SDS011;4276;49.354;6.804;2022-10-26T09:42:56;3.55;;;2.50;;
8478;SDS011;4276;49.354;6.804;2022-10-26T09:45:49;6.15;;;3.10;;
8478;SDS011;4276;49.354;6.804;2022-10-26T09:48:30;5.80;;;3.20;;
8478;SDS011;4276;49.354;6.804;2022-10-26T09:51:05;4.03;;;2.60;;
8478;SDS011;4276;49.354;6.804;2022-10-26T09:53:31;3.60;;;2.97;;
8478;SDS011;4276;49.354;6.804;2022-10-26T09:56:12;3.42;;;2.85;;
8478;SDS011;4276;49.354;6.804;2022-10-26T09:58:46;4.47;;;2.83;;
8478;SDS011;4276;49.354;6.804;2022-10-26T10:01:20;4.00;;;2.90;;
8478;SDS011;4276;49.354;6.804;2022-10-26T10:06:51;4.40;;;2.45;;
8478;SDS011;4276;49.354;6.804;2022-10-26T10:09:38;3.97;;;2.47;;
8478;SDS011;4276;49.354;6.804;2022-10-26T10:12:05;3.25;;;2.22;;
8478;SDS011;4276;49.354;6.804;2022-10-26T10:14:33;6.72;;;2.72;;
8478;SDS011;4276;49.354;6.804;2022-10-26T10:17:21;3.00;;;2.10;;
8478;SDS011;4276;49.354;6.804;2022-10-26T10:19:49;4.18;;;2.28;;
8478;SDS011;4276;49.354;6.804;2022-10-26T10:22:20;3.15;;;2.25;;
8478;SDS011;4276;49.354;6.804;2022-10-26T10:27:20;2.67;;;2.30;;
8478;SDS011;4276;49.354;6.804;2022-10-26T10:29:47;4.57;;;2.22;;
8478;SDS011;4276;49.354;6.804;2022-10-26T10:34:42;3.42;;;2.17;;
8478;SDS011;4276;49.354;6.804;2022-10-26T10:37:51;3.38;;;2.00;;
8478;SDS011;4276;49.354;6.804;2022-10-26T10:40:08;5.00;;;3.08;;
8478;SDS011;4276;49.354;6.804;2022-10-26T10:42:48;4.00;;;2.05;;
8478;SDS011;4276;49.354;6.804;2022-10-26T10:45:20;2.75;;;1.90;;
8478;SDS011;4276;49.354;6.804;2022-10-26T10:48:04;20.58;;;17.75;;
8478;SDS011;4276;49.354;6.804;2022-10-26T10:50:49;3.83;;;2.65;;
8478;SDS011;4276;49.354;6.804;2022-10-26T10:53:17;4.60;;;2.83;;
8478;SDS011;4276;49.354;6.804;2022-10-26T10:56:07;5.50;;;3.70;;
8478;SDS011;4276;49.354;6.804;2022-10-26T11:02:12;4.03;;;2.90;;
8478;SDS011;4276;49.354;6.804;2022-10-26T11:07:18;3.25;;;1.70;;
8478;SDS011;4276;49.354;6.804;2022-10-26T11:09:45;2.97;;;1.80;;
8478;SDS011;4276;49.354;6.804;2022-10-26T11:14:53;9.98;;;9.02;;
8478;SDS011;4276;49.354;6.804;2022-10-26T11:17:27;4.05;;;3.50;;
8478;SDS011;4276;49.354;6.804;2022-10-26T11:19:58;3.13;;;1.80;;
8478;SDS011;4276;49.354;6.804;2022-10-26T11:22:33;3.10;;;1.90;;
8478;SDS011;4276;49.354;6.804;2022-10-26T11:25:19;2.95;;;1.85;;
8478;SDS011;4276;49.354;6.804;2022-10-26T11:27:51;4.28;;;1.88;;
8478;SDS011;4276;49.354;6.804;2022-10-26T11:30:40;4.25;;;2.72;;
8478;SDS011;4276;49.354;6.804;2022-10-26T11:35:46;18.67;;;17.00;;
8478;SDS011;4276;49.354;6.804;2022-10-26T11:41:23;3.45;;;2.55;;
8478;SDS011;4276;49.354;6.804;2022-10-26T11:43:53;4.18;;;2.00;;
8478;SDS011;4276;49.354;6.804;2022-10-26T11:46:43;7.13;;;5.63;;
8478;SDS011;4276;49.354;6.804;2022-10-26T11:49:14;11.77;;;10.52;;
8478;SDS011;4276;49.354;6.804;2022-10-26T11:54:33;4.50;;;1.80;;
8478;SDS011;4276;49.354;6.804;2022-10-26T11:57:02;5.60;;;1.90;;
8478;SDS011;4276;49.354;6.804;2022-10-26T11:59:31;3.33;;;1.90;;
8478;SDS011;4276;49.354;6.804;2022-10-26T12:04:41;4.45;;;1.98;;
8478;SDS011;4276;49.354;6.804;2022-10-26T12:07:12;3.28;;;2.13;;
8478;SDS011;4276;49.354;6.804;2022-10-26T12:09:47;5.50;;;2.00;;
8478;SDS011;4276;49.354;6.804;2022-10-26T12:14:59;1.85;;;1.67;;
8478;SDS011;4276;49.354;6.804;2022-10-26T12:18:13;2.30;;;1.92;;
8478;SDS011;4276;49.354;6.804;2022-10-26T12:21:11;2.10;;;1.90;;
8478;SDS011;4276;49.354;6.804;2022-10-26T12:23:53;3.78;;;1.70;;
8478;SDS011;4276;49.354;6.804;2022-10-26T12:34:10;4.47;;;2.03;;
8478;SDS011;4276;49.354;6.804;2022-10-26T12:39:31;4.32;;;2.10;;
8478;SDS011;4276;49.354;6.804;2022-10-26T12:46:57;4.47;;;2.10;;
8478;SDS011;4276;49.354;6.804;2022-10-26T12:53:12;3.10;;;2.03;;
8478;SDS011;4276;49.354;6.804;2022-10-26T12:55:25;2.65;;;1.42;;
8478;SDS011;4276;49.354;6.804;2022-10-26T13:03:38;1.85;;;1.35;;
8478;SDS011;4276;49.354;6.804;2022-10-26T13:06:16;3.65;;;1.90;;
8478;SDS011;4276;49.354;6.804;2022-10-26T13:09:22;2.28;;;1.40;;
8478;SDS011;4276;49.354;6.804;2022-10-26T13:11:53;1.60;;;1.38;;
8478;SDS011;4276;49.354;6.804;2022-10-26T13:14:22;3.00;;;1.50;;
8478;SDS011;4276;49.354;6.804;2022-10-26T13:16:51;2.03;;;1.30;;
8478;SDS011;4276;49.354;6.804;2022-10-26T13:19:25;2.40;;;1.45;;
8478;SDS011;4276;49.354;6.804;2022-10-26T13:21:53;3.45;;;1.65;;
8478;SDS011;4276;49.354;6.804;2022-10-26T13:24:23;2.70;;;1.45;;
8478;SDS011;4276;49.354;6.804;2022-10-26T13:29:32;1.52;;;1.40;;
8478;SDS011;4276;49.354;6.804;2022-10-26T13:32:39;1.38;;;1.10;;
8478;SDS011;4276;49.354;6.804;2022-10-26T13:35:11;3.72;;;1.58;;
8478;SDS011;4276;49.354;6.804;2022-10-26T13:37:40;1.65;;;1.48;;
8478;SDS011;4276;49.354;6.804;2022-10-26T13:40:13;2.80;;;1.95;;
8478;SDS011;4276;49.354;6.804;2022-10-26T13:42:53;2.35;;;1.35;;
8478;SDS011;4276;49.354;6.804;2022-10-26T13:47:57;2.00;;;1.30;;
8478;SDS011;4276;49.354;6.804;2022-10-26T13:50:52;2.08;;;1.65;;
8478;SDS011;4276;49.354;6.804;2022-10-26T13:53:56;2.13;;;1.70;;
8478;SDS011;4276;49.354;6.804;2022-10-26T13:56:30;3.03;;;2.00;;
8478;SDS011;4276;49.354;6.804;2022-10-26T14:01:43;2.53;;;1.50;;
8478;SDS011;4276;49.354;6.804;2022-10-26T14:04:17;1.73;;;1.45;;
8478;SDS011;4276;49.354;6.804;2022-10-26T14:06:51;3.60;;;1.70;;
8478;SDS011;4276;49.354;6.804;2022-10-26T14:09:18;3.47;;;1.75;;
8478;SDS011;4276;49.354;6.804;2022-10-26T14:11:53;3.92;;;1.98;;
8478;SDS011;4276;49.354;6.804;2022-10-26T14:16:57;2.95;;;1.70;;
8478;SDS011;4276;49.354;6.804;2022-10-26T14:19:25;1.67;;;1.27;;
8478;SDS011;4276;49.354;6.804;2022-10-26T14:21:53;3.53;;;1.55;;
8478;SDS011;4276;49.354;6.804;2022-10-26T14:24:22;2.88;;;1.67;;
8478;SDS011;4276;49.354;6.804;2022-10-26T14:27:13;2.78;;;1.83;;
8478;SDS011;4276;49.354;6.804;2022-10-26T14:29:44;2.45;;;1.60;;
8478;SDS011;4276;49.354;6.804;2022-10-26T14:32:31;1.67;;;1.30;;
8478;SDS011;4276;49.354;6.804;2022-10-26T14:34:59;2.90;;;1.20;;
8478;SDS011;4276;49.354;6.804;2022-10-26T14:40:02;4.18;;;1.70;;
8478;SDS011;4276;49.354;6.804;2022-10-26T14:42:31;1.23;;;1.13;;
8478;SDS011;4276;49.354;6.804;2022-10-26T14:44:59;1.40;;;1.30;;
8478;SDS011;4276;49.354;6.804;2022-10-26T14:47:27;1.70;;;1.50;;
8478;SDS011;4276;49.354;6.804;2022-10-26T14:49:58;3.38;;;1.40;;
8478;SDS011;4276;49.354;6.804;2022-10-26T14:52:26;1.98;;;1.30;;
8478;SDS011;4276;49.354;6.804;2022-10-26T14:55:09;2.20;;;1.10;;
8478;SDS011;4276;49.354;6.804;2022-10-26T14:57:38;2.28;;;1.50;;
8478;SDS011;4276;49.354;6.804;2022-10-26T15:02:45;1.58;;;1.40;;
8478;SDS011;4276;49.354;6.804;2022-10-26T15:07:50;2.47;;;1.25;;
8478;SDS011;4276;49.354;6.804;2022-10-26T15:13:08;3.97;;;2.03;;
8478;SDS011;4276;49.354;6.804;2022-10-26T15:15:55;2.67;;;1.80;;
8478;SDS011;4276;49.354;6.804;2022-10-26T15:20:52;5.43;;;3.45;;
8478;SDS011;4276;49.354;6.804;2022-10-26T15:23:19;6.63;;;5.30;;
8478;SDS011;4276;49.354;6.804;2022-10-26T15:25:59;6.15;;;3.20;;
8478;SDS011;4276;49.354;6.804;2022-10-26T15:33:42;6.07;;;2.70;;
8478;SDS011;4276;49.354;6.804;2022-10-26T15:36:21;6.10;;;4.82;;
8478;SDS011;4276;49.354;6.804;2022-10-26T15:38:49;3.90;;;2.03;;
8478;SDS011;4276;49.354;6.804;2022-10-26T15:41:21;3.10;;;1.73;;
8478;SDS011;4276;49.354;6.804;2022-10-26T15:43:48;9.38;;;2.40;;
8478;SDS011;4276;49.354;6.804;2022-10-26T15:46:16;5.70;;;2.00;;
8478;SDS011;4276;49.354;6.804;2022-10-26T15:48:44;4.75;;;2.10;;
8478;SDS011;4276;49.354;6.804;2022-10-26T15:51:14;2.90;;;1.80;;
8478;SDS011;4276;49.354;6.804;2022-10-26T15:53:41;8.32;;;5.45;;
8478;SDS011;4276;49.354;6.804;2022-10-26T15:56:11;4.38;;;3.13;;
8478;SDS011;4276;49.354;6.804;2022-10-26T15:58:40;3.90;;;2.65;;
8478;SDS011;4276;49.354;6.804;2022-10-26T16:01:08;3.83;;;2.63;;
8478;SDS011;4276;49.354;6.804;2022-10-26T16:03:39;4.40;;;2.58;;
8478;SDS011;4276;49.354;6.804;2022-10-26T16:06:16;5.57;;;3.58;;
8478;SDS011;4276;49.354;6.804;2022-10-26T16:08:49;5.82;;;5.07;;
8478;SDS011;4276;49.354;6.804;2022-10-26T16:11:18;5.30;;;4.05;;
8478;SDS011;4276;49.354;6.804;2022-10-26T16:13:44;4.47;;;3.70;;
8478;SDS011;4276;49.354;6.804;2022-10-26T16:16:12;4.88;;;3.80;;
8478;SDS011;4276;49.354;6.804;2022-10-26T16:18:39;5.65;;;3.40;;
8478;SDS011;4276;49.354;6.804;2022-10-26T16:21:09;3.22;;;2.92;;
8478;SDS011;4276;49.354;6.804;2022-10-26T16:23:37;3.22;;;2.90;;
8478;SDS011;4276;49.354;6.804;2022-10-26T16:26:04;3.88;;;3.03;;
8478;SDS011;4276;49.354;6.804;2022-10-26T16:28:30;3.83;;;1.90;;
8478;SDS011;4276;49.354;6.804;2022-10-26T16:31:00;4.45;;;1.85;;
8478;SDS011;4276;49.354;6.804;2022-10-26T16:33:28;4.30;;;2.45;;
8478;SDS011;4276;49.354;6.804;2022-10-26T16:35:55;3.53;;;2.30;;
8478;SDS011;4276;49.354;6.804;2022-10-26T16:38:22;5.45;;;2.53;;
8478;SDS011;4276;49.354;6.804;2022-10-26T16:40:49;4.25;;;2.10;;
8478;SDS011;4276;49.354;6.804;2022-10-26T16:43:16;6.03;;;2.00;;
8478;SDS011;4276;49.354;6.804;2022-10-26T16:45:42;8.63;;;2.63;;
8478;SDS011;4276;49.354;6.804;2022-10-26T16:48:09;5.60;;;2.25;;
8478;SDS011;4276;49.354;6.804;2022-10-26T16:50:40;4.93;;;2.88;;
8478;SDS011;4276;49.354;6.804;2022-10-26T16:53:07;8.35;;;4.20;;
8478;SDS011;4276;49.354;6.804;2022-10-26T16:55:33;10.43;;;4.47;;
8478;SDS011;4276;49.354;6.804;2022-10-26T16:58:00;7.75;;;4.88;;
8478;SDS011;4276;49.354;6.804;2022-10-26T17:00:27;4.68;;;4.22;;
8478;SDS011;4276;49.354;6.804;2022-10-26T17:02:53;9.32;;;4.13;;
8478;SDS011;4276;49.354;6.804;2022-10-26T17:05:20;6.88;;;3.50;;
8478;SDS011;4276;49.354;6.804;2022-10-26T17:07:46;8.13;;;4.07;;
8478;SDS011;4276;49.354;6.804;2022-10-26T17:10:13;6.63;;;4.53;;
8478;SDS011;4276;49.354;6.804;2022-10-26T17:12:40;6.40;;;4.20;;
8478;SDS011;4276;49.354;6.804;2022-10-26T17:15:07;6.78;;;3.70;;
8478;SDS011;4276;49.354;6.804;2022-10-26T17:17:34;4.22;;;3.45;;
8478;SDS011;4276;49.354;6.804;2022-10-26T17:20:01;3.38;;;2.85;;
8478;SDS011;4276;49.354;6.804;2022-10-26T17:22:27;5.95;;;2.25;;
8478;SDS011;4276;49.354;6.804;2022-10-26T17:24:54;5.80;;;2.50;;
8478;SDS011;4276;49.354;6.804;2022-10-26T17:27:20;6.15;;;2.30;;
8478;SDS011;4276;49.354;6.804;2022-10-26T17:29:48;4.75;;;2.15;;
8478;SDS011;4276;49.354;6.804;2022-10-26T17:32:14;3.58;;;2.03;;
8478;SDS011;4276;49.354;6.804;2022-10-26T17:34:41;3.40;;;2.38;;
8478;SDS011;4276;49.354;6.804;2022-10-26T17:37:08;9.10;;;2.53;;
8478;SDS011;4276;49.354;6.804;2022-10-26T17:39:34;3.85;;;2.10;;
8478;SDS011;4276;49.354;6.804;2022-10-26T17:42:01;6.00;;;2.10;;
8478;SDS011;4276;49.354;6.804;2022-10-26T17:44:28;4.50;;;2.10;;
8478;SDS011;4276;49.354;6.804;2022-10-26T17:46:54;8.10;;;2.20;;
8478;SDS011;4276;49.354;6.804;2022-10-26T17:49:21;5.15;;;2.20;;
8478;SDS011;4276;49.354;6.804;2022-10-26T17:51:52;7.38;;;2.30;;
8478;SDS011;4276;49.354;6.804;2022-10-26T17:54:18;6.38;;;2.22;;